createdAt,value
2023-05-06T00:00:00.025Z,10.55
2023-05-06T00:00:59.981Z,10.58
2023-05-06T00:02:00.005Z,10.58
2023-05-06T00:02:59.979Z,10.58
2023-05-06T00:04:00.190Z,10.56
2023-05-06T00:04:59.917Z,10.56
2023-05-06T00:05:59.956Z,10.58
2023-05-06T00:07:00.041Z,10.56
2023-05-06T00:07:59.898Z,10.58
2023-05-06T00:08:59.882Z,10.58
2023-05-06T00:09:59.890Z,10.58
2023-05-06T00:10:59.877Z,10.58
2023-05-06T00:11:59.866Z,10.60
2023-05-06T00:12:59.845Z,10.59
2023-05-06T00:13:59.833Z,10.60
2023-05-06T00:14:59.804Z,10.63
2023-05-06T00:15:59.875Z,10.62
2023-05-06T00:16:59.843Z,10.63
2023-05-06T00:17:59.836Z,10.63
2023-05-06T00:18:59.771Z,10.63
2023-05-06T00:19:59.792Z,10.62
2023-05-06T00:20:59.781Z,10.62
2023-05-06T00:21:59.746Z,10.62
2023-05-06T00:22:59.735Z,10.62
2023-05-06T00:23:59.765Z,10.62
2023-05-06T00:24:59.701Z,10.60
2023-05-06T00:25:59.725Z,10.62
2023-05-06T00:26:59.688Z,10.62
2023-05-06T00:27:59.695Z,10.62
2023-05-06T00:28:59.709Z,10.59
2023-05-06T00:29:59.686Z,10.60
2023-05-06T00:30:59.688Z,10.58
2023-05-06T00:31:59.678Z,10.55
2023-05-06T00:32:59.638Z,10.52
2023-05-06T00:33:59.632Z,10.52
2023-05-06T00:34:59.639Z,10.51
2023-05-06T00:35:59.606Z,10.46
2023-05-06T00:36:59.596Z,10.47
2023-05-06T00:37:59.574Z,10.46
2023-05-06T00:38:59.615Z,10.46
2023-05-06T00:39:59.590Z,10.46
2023-05-06T00:40:59.593Z,10.47
2023-05-06T00:41:59.555Z,10.46
2023-05-06T00:42:59.527Z,10.44
2023-05-06T00:43:59.570Z,10.44
2023-05-06T00:44:59.493Z,10.46
2023-05-06T00:45:59.551Z,10.46
2023-05-06T00:46:59.503Z,10.47
2023-05-06T00:47:59.555Z,10.46
2023-05-06T00:48:59.511Z,10.47
2023-05-06T00:49:59.462Z,10.46
2023-05-06T00:50:59.458Z,10.44
2023-05-06T00:51:59.440Z,10.46
2023-05-06T00:52:59.445Z,10.47
2023-05-06T00:53:59.479Z,10.47
2023-05-06T00:54:59.421Z,10.51
2023-05-06T00:55:59.411Z,10.52
2023-05-06T00:56:59.387Z,10.52
2023-05-06T00:57:59.391Z,10.55
2023-05-06T00:58:59.400Z,10.53
2023-05-06T00:59:59.364Z,10.55
2023-05-06T01:00:59.368Z,10.53
2023-05-06T01:01:59.342Z,10.55
2023-05-06T01:02:59.544Z,10.51
2023-05-06T01:03:59.433Z,10.52
2023-05-06T01:04:59.345Z,10.52
2023-05-06T01:05:59.305Z,10.51
2023-05-06T01:06:59.336Z,10.51
2023-05-06T01:07:59.310Z,10.53
2023-05-06T01:08:59.276Z,10.52
2023-05-06T01:09:59.266Z,10.52
2023-05-06T01:10:59.293Z,10.52
2023-05-06T01:11:59.260Z,10.51
2023-05-06T01:12:59.258Z,10.51
2023-05-06T01:13:59.232Z,10.51
2023-05-06T01:14:59.231Z,10.51
2023-05-06T01:15:59.216Z,10.47
2023-05-06T01:16:59.249Z,10.46
2023-05-06T01:17:59.219Z,10.46
2023-05-06T01:18:59.179Z,10.44
2023-05-06T01:19:59.210Z,10.46
2023-05-06T01:20:59.148Z,10.46
2023-05-06T01:21:59.194Z,10.44
2023-05-06T01:22:59.124Z,10.43
2023-05-06T01:23:59.115Z,10.42
2023-05-06T01:24:59.120Z,10.40
2023-05-06T01:25:59.120Z,10.42
2023-05-06T01:26:59.146Z,10.42
2023-05-06T01:27:59.087Z,10.40
2023-05-06T01:28:59.087Z,10.40
2023-05-06T01:29:59.043Z,10.42
2023-05-06T01:30:59.146Z,10.40
2023-05-06T01:31:59.030Z,10.43
2023-05-06T01:32:59.044Z,10.43
2023-05-06T01:33:59.025Z,10.43
2023-05-06T01:34:59.031Z,10.46
2023-05-06T01:35:59.009Z,10.46
2023-05-06T01:36:59.002Z,10.43
2023-05-06T01:37:58.964Z,10.44
2023-05-06T01:38:58.971Z,10.44
2023-05-06T01:39:59.023Z,10.44
2023-05-06T01:40:58.933Z,10.44
2023-05-06T01:41:58.931Z,10.46
2023-05-06T01:42:58.925Z,10.44
2023-05-06T01:43:58.927Z,10.44
2023-05-06T01:44:58.926Z,10.46
2023-05-06T01:45:58.918Z,10.44
2023-05-06T01:46:58.919Z,10.44
2023-05-06T01:47:58.879Z,10.44
2023-05-06T01:48:58.882Z,10.42
2023-05-06T01:49:58.882Z,10.43
2023-05-06T01:50:58.849Z,10.44
2023-05-06T01:51:58.877Z,10.42
2023-05-06T01:52:58.942Z,10.42
2023-05-06T01:53:58.841Z,10.43
2023-05-06T01:54:58.816Z,10.43
2023-05-06T01:55:58.787Z,10.42
2023-05-06T01:56:58.777Z,10.43
2023-05-06T01:57:58.758Z,10.43
2023-05-06T01:58:59.552Z,10.44
2023-05-06T01:59:58.748Z,10.43
2023-05-06T02:00:58.737Z,10.42
2023-05-06T02:01:58.756Z,10.42
2023-05-06T02:02:58.811Z,10.42
2023-05-06T02:03:58.882Z,10.39
2023-05-06T02:04:58.700Z,10.39
2023-05-06T02:05:58.719Z,10.37
2023-05-06T02:06:58.690Z,10.34
2023-05-06T02:07:58.725Z,10.34
2023-05-06T02:08:58.668Z,10.33
2023-05-06T02:09:58.636Z,10.33
2023-05-06T02:10:58.643Z,10.30
2023-05-06T02:11:58.625Z,10.26
2023-05-06T02:12:58.696Z,10.25
2023-05-06T02:13:58.619Z,10.22
2023-05-06T02:14:58.599Z,10.18
2023-05-06T02:15:58.602Z,10.14
2023-05-06T02:16:58.610Z,10.07
2023-05-06T02:17:58.613Z,10.01
2023-05-06T02:18:58.606Z,9.97
2023-05-06T02:19:58.534Z,9.96
2023-05-06T02:20:58.545Z,9.91
2023-05-06T02:21:58.663Z,9.88
2023-05-06T02:22:58.508Z,9.83
2023-05-06T02:23:58.517Z,9.75
2023-05-06T02:24:58.497Z,9.73
2023-05-06T02:25:58.521Z,9.67
2023-05-06T02:26:58.495Z,9.64
2023-05-06T02:27:58.466Z,9.60
2023-05-06T02:28:58.462Z,9.56
2023-05-06T02:29:58.434Z,9.50
2023-05-06T02:30:58.510Z,9.45
2023-05-06T02:31:58.499Z,9.40
2023-05-06T02:32:58.471Z,9.35
2023-05-06T02:33:58.439Z,9.31
2023-05-06T02:34:58.399Z,9.27
2023-05-06T02:35:58.402Z,9.23
2023-05-06T02:36:58.372Z,9.18
2023-05-06T02:37:58.385Z,9.13
2023-05-06T02:38:58.359Z,9.09
2023-05-06T02:39:58.359Z,9.04
2023-05-06T02:40:58.401Z,8.99
2023-05-06T02:41:58.311Z,8.97
2023-05-06T02:42:58.341Z,8.91
2023-05-06T02:43:58.323Z,8.88
2023-05-06T02:44:58.310Z,8.83
2023-05-06T02:45:58.393Z,8.81
2023-05-06T02:46:58.283Z,8.78
2023-05-06T02:47:58.284Z,8.73
2023-05-06T02:48:58.256Z,8.72
2023-05-06T02:49:58.336Z,8.66
2023-05-06T02:50:58.248Z,8.63
2023-05-06T02:51:58.295Z,8.58
2023-05-06T02:52:58.218Z,8.55
2023-05-06T02:53:58.221Z,8.54
2023-05-06T02:54:58.268Z,8.54
2023-05-06T02:55:58.201Z,8.54
2023-05-06T02:56:58.170Z,8.51
2023-05-06T02:57:58.179Z,8.54
2023-05-06T02:58:58.202Z,8.53
2023-05-06T02:59:58.158Z,8.53
2023-05-06T03:00:58.222Z,8.53
2023-05-06T03:01:58.152Z,8.53
2023-05-06T03:02:58.156Z,8.54
2023-05-06T03:03:58.142Z,8.51
2023-05-06T03:04:58.085Z,8.48
2023-05-06T03:05:58.071Z,8.48
2023-05-06T03:06:58.071Z,8.53
2023-05-06T03:07:58.111Z,8.58
2023-05-06T03:08:58.020Z,8.58
2023-05-06T03:09:57.969Z,8.57
2023-05-06T03:10:57.964Z,8.58
2023-05-06T03:11:57.949Z,8.60
2023-05-06T03:12:58.002Z,8.62
2023-05-06T03:13:57.978Z,8.57
2023-05-06T03:14:57.922Z,8.58
2023-05-06T03:15:57.902Z,8.58
2023-05-06T03:16:58.014Z,8.54
2023-05-06T03:17:57.970Z,8.54
2023-05-06T03:18:57.926Z,8.50
2023-05-06T03:19:57.907Z,8.48
2023-05-06T03:20:57.959Z,8.47
2023-05-06T03:21:57.892Z,8.44
2023-05-06T03:22:57.898Z,8.44
2023-05-06T03:23:57.857Z,8.42
2023-05-06T03:24:57.872Z,8.44
2023-05-06T03:25:57.812Z,8.47
2023-05-06T03:26:57.835Z,8.42
2023-05-06T03:27:57.799Z,8.44
2023-05-06T03:28:57.795Z,8.45
2023-05-06T03:29:57.736Z,8.45
2023-05-06T03:30:57.749Z,8.47
2023-05-06T03:31:57.861Z,8.45
2023-05-06T03:32:57.758Z,8.50
2023-05-06T03:33:57.710Z,8.58
2023-05-06T03:34:57.746Z,8.60
2023-05-06T03:35:57.685Z,8.65
2023-05-06T03:36:57.716Z,8.66
2023-05-06T03:37:57.795Z,8.68
2023-05-06T03:38:57.669Z,8.72
2023-05-06T03:39:57.664Z,8.68
2023-05-06T03:40:57.725Z,8.65
2023-05-06T03:41:57.697Z,8.60
2023-05-06T03:42:57.644Z,8.57
2023-05-06T03:43:57.630Z,8.54
2023-05-06T03:44:57.624Z,8.53
2023-05-06T03:45:57.662Z,8.50
2023-05-06T03:46:57.628Z,8.51
2023-05-06T03:47:58.578Z,8.53
2023-05-06T03:48:57.580Z,8.51
2023-05-06T03:49:57.590Z,8.51
2023-05-06T03:50:57.598Z,8.50
2023-05-06T03:51:57.513Z,8.44
2023-05-06T03:52:57.524Z,8.42
2023-05-06T03:53:57.538Z,8.42
2023-05-06T03:54:57.596Z,8.39
2023-05-06T03:55:57.510Z,8.44
2023-05-06T03:56:57.705Z,8.45
2023-05-06T03:57:57.469Z,8.48
2023-05-06T03:58:57.468Z,8.45
2023-05-06T03:59:57.456Z,8.42
2023-05-06T04:00:58.119Z,8.39
2023-05-06T04:01:57.486Z,8.39
2023-05-06T04:02:57.544Z,8.40
2023-05-06T04:03:57.549Z,8.39
2023-05-06T04:04:57.453Z,8.37
2023-05-06T04:05:57.413Z,8.37
2023-05-06T04:06:57.371Z,8.36
2023-05-06T04:07:57.373Z,8.37
2023-05-06T04:08:57.425Z,8.39
2023-05-06T04:09:57.350Z,8.40
2023-05-06T04:10:57.341Z,8.45
2023-05-06T04:11:57.369Z,8.50
2023-05-06T04:12:57.337Z,8.54
2023-05-06T04:13:57.333Z,8.54
2023-05-06T04:14:57.304Z,8.55
2023-05-06T04:15:57.321Z,8.54
2023-05-06T04:16:57.264Z,8.53
2023-05-06T04:17:57.325Z,8.51
2023-05-06T04:18:57.268Z,8.48
2023-05-06T04:19:57.226Z,8.47
2023-05-06T04:20:57.226Z,8.44
2023-05-06T04:21:57.232Z,8.45
2023-05-06T04:22:57.276Z,8.45
2023-05-06T04:23:57.204Z,8.42
2023-05-06T04:24:57.184Z,8.40
2023-05-06T04:25:57.179Z,8.39
2023-05-06T04:26:57.168Z,8.40
2023-05-06T04:27:57.238Z,8.37
2023-05-06T04:28:57.163Z,8.35
2023-05-06T04:29:57.131Z,8.32
2023-05-06T04:30:57.137Z,8.28
2023-05-06T04:31:57.196Z,8.28
2023-05-06T04:32:57.261Z,8.26
2023-05-06T04:33:57.139Z,8.26
2023-05-06T04:34:57.113Z,8.29
2023-05-06T04:35:57.065Z,8.32
2023-05-06T04:36:57.172Z,8.33
2023-05-06T04:37:57.089Z,8.39
2023-05-06T04:38:57.093Z,8.45
2023-05-06T04:39:57.032Z,8.50
2023-05-06T04:40:57.090Z,8.58
2023-05-06T04:41:57.046Z,8.71
2023-05-06T04:42:57.017Z,8.84
2023-05-06T04:43:57.070Z,9.06
2023-05-06T04:44:57.000Z,9.21
2023-05-06T04:45:57.051Z,9.30
2023-05-06T04:46:56.986Z,9.45
2023-05-06T04:47:56.975Z,9.73
2023-05-06T04:48:56.988Z,9.97
2023-05-06T04:49:56.957Z,10.21
2023-05-06T04:50:56.962Z,10.52
2023-05-06T04:51:56.913Z,10.73
2023-05-06T04:52:56.901Z,10.89
2023-05-06T04:53:56.915Z,10.96
2023-05-06T04:54:56.911Z,11.01
2023-05-06T04:55:56.922Z,10.96
2023-05-06T04:56:56.879Z,10.89
2023-05-06T04:57:56.841Z,10.91
2023-05-06T04:58:56.869Z,10.81
2023-05-06T04:59:56.870Z,10.80
2023-05-06T05:00:56.858Z,10.88
2023-05-06T05:01:56.847Z,10.91
2023-05-06T05:02:56.854Z,10.89
2023-05-06T05:03:56.798Z,10.92
2023-05-06T05:04:56.835Z,10.94
2023-05-06T05:05:56.764Z,10.95
2023-05-06T05:06:56.762Z,11.01
2023-05-06T05:07:56.767Z,11.14
2023-05-06T05:08:57.106Z,11.31
2023-05-06T05:09:56.760Z,11.53
2023-05-06T05:10:56.733Z,11.86
2023-05-06T05:11:56.705Z,12.20
2023-05-06T05:12:56.768Z,12.51
2023-05-06T05:13:57.731Z,12.85
2023-05-06T05:14:56.682Z,12.89
2023-05-06T05:15:56.672Z,12.95
2023-05-06T05:16:56.686Z,13.14
2023-05-06T05:17:56.644Z,13.30
2023-05-06T05:18:56.655Z,13.61
2023-05-06T05:19:56.623Z,13.98
2023-05-06T05:20:56.608Z,14.34
2023-05-06T05:21:56.629Z,14.61
2023-05-06T05:22:56.586Z,14.93
2023-05-06T05:23:56.637Z,15.08
2023-05-06T05:24:56.576Z,15.11
2023-05-06T05:25:56.565Z,15.31
2023-05-06T05:26:56.559Z,15.60
2023-05-06T05:27:56.560Z,15.94
2023-05-06T05:28:56.575Z,16.07
2023-05-06T05:29:56.588Z,16.26
2023-05-06T05:30:56.534Z,16.50
2023-05-06T05:31:56.500Z,16.70
2023-05-06T05:32:56.604Z,16.77
2023-05-06T05:33:56.544Z,16.83
2023-05-06T05:34:56.476Z,17.03
2023-05-06T05:35:56.467Z,17.26
2023-05-06T05:36:56.497Z,17.17
2023-05-06T05:37:56.482Z,17.35
2023-05-06T05:38:56.432Z,17.29
2023-05-06T05:39:56.417Z,17.20
2023-05-06T05:40:56.406Z,16.93
2023-05-06T05:41:56.434Z,16.77
2023-05-06T05:42:56.452Z,16.55
2023-05-06T05:43:56.392Z,16.45
2023-05-06T05:44:56.356Z,16.23
2023-05-06T05:45:56.382Z,15.93
2023-05-06T05:46:56.377Z,16.00
2023-05-06T05:47:56.339Z,16.11
2023-05-06T05:48:56.322Z,16.14
2023-05-06T05:49:56.310Z,15.97
2023-05-06T05:50:56.348Z,15.92
2023-05-06T05:51:56.328Z,15.75
2023-05-06T05:52:56.282Z,15.81
2023-05-06T05:53:56.269Z,15.85
2023-05-06T05:54:56.250Z,15.85
2023-05-06T05:55:56.280Z,15.96
2023-05-06T05:56:56.226Z,16.15
2023-05-06T05:57:56.230Z,16.50
2023-05-06T05:58:56.218Z,17.18
2023-05-06T05:59:56.200Z,17.69
2023-05-06T06:00:56.232Z,17.71
2023-05-06T06:01:56.181Z,18.04
2023-05-06T06:02:56.232Z,17.87
2023-05-06T06:03:56.601Z,17.54
2023-05-06T06:04:56.291Z,17.14
2023-05-06T06:05:56.173Z,16.88
2023-05-06T06:06:56.114Z,16.52
2023-05-06T06:07:56.145Z,16.33
2023-05-06T06:08:56.115Z,16.18
2023-05-06T06:09:56.156Z,16.16
2023-05-06T06:10:56.113Z,16.53
2023-05-06T06:11:56.078Z,16.35
2023-05-06T06:12:56.158Z,16.16
2023-05-06T06:13:56.066Z,15.99
2023-05-06T06:14:56.075Z,15.82
2023-05-06T06:15:56.084Z,15.59
2023-05-06T06:16:56.023Z,15.38
2023-05-06T06:17:56.045Z,15.19
2023-05-06T06:18:56.010Z,15.08
2023-05-06T06:19:56.028Z,15.21
2023-05-06T06:20:55.975Z,15.64
2023-05-06T06:21:55.965Z,16.16
2023-05-06T06:22:55.957Z,17.03
2023-05-06T06:23:55.974Z,17.63
2023-05-06T06:24:55.980Z,17.57
2023-05-06T06:25:55.925Z,17.00
2023-05-06T06:26:55.903Z,16.75
2023-05-06T06:27:55.908Z,16.45
2023-05-06T06:28:55.926Z,16.12
2023-05-06T06:29:55.927Z,16.15
2023-05-06T06:30:55.878Z,16.53
2023-05-06T06:31:55.913Z,17.26
2023-05-06T06:32:55.928Z,17.50
2023-05-06T06:33:55.880Z,17.43
2023-05-06T06:34:55.862Z,17.03
2023-05-06T06:35:55.822Z,17.30
2023-05-06T06:36:55.805Z,17.64
2023-05-06T06:37:55.877Z,17.76
2023-05-06T06:38:55.830Z,17.55
2023-05-06T06:39:55.789Z,16.86
2023-05-06T06:40:55.769Z,16.60
2023-05-06T06:41:55.767Z,16.33
2023-05-06T06:42:55.782Z,16.27
2023-05-06T06:43:55.765Z,15.99
2023-05-06T06:44:55.732Z,15.63
2023-05-06T06:45:55.767Z,15.43
2023-05-06T06:46:55.700Z,15.31
2023-05-06T06:47:55.777Z,15.17
2023-05-06T06:48:55.703Z,15.08
2023-05-06T06:49:55.669Z,15.03
2023-05-06T06:50:55.664Z,15.05
2023-05-06T06:51:55.823Z,14.98
2023-05-06T06:52:55.681Z,14.93
2023-05-06T06:53:55.650Z,14.94
2023-05-06T06:54:55.633Z,15.02
2023-05-06T06:55:55.618Z,15.15
2023-05-06T06:56:55.639Z,15.30
2023-05-06T06:57:55.593Z,15.31
2023-05-06T06:58:55.599Z,15.48
2023-05-06T06:59:55.578Z,15.43
2023-05-06T07:00:55.667Z,15.41
2023-05-06T07:01:55.595Z,15.42
2023-05-06T07:02:55.597Z,15.41
2023-05-06T07:03:55.588Z,15.38
2023-05-06T07:04:55.589Z,15.35
2023-05-06T07:05:55.571Z,15.28
2023-05-06T07:06:55.550Z,15.13
2023-05-06T07:07:55.558Z,15.17
2023-05-06T07:08:55.483Z,15.13
2023-05-06T07:09:55.482Z,15.12
2023-05-06T07:10:55.510Z,14.95
2023-05-06T07:11:55.442Z,14.83
2023-05-06T07:12:55.493Z,14.75
2023-05-06T07:13:55.431Z,14.69
2023-05-06T07:14:55.436Z,14.57
2023-05-06T07:15:55.431Z,14.53
2023-05-06T07:16:55.466Z,15.46
2023-05-06T07:17:55.441Z,16.68
2023-05-06T07:18:55.391Z,17.29
2023-05-06T07:19:55.383Z,17.87
2023-05-06T07:20:55.371Z,17.70
2023-05-06T07:21:55.390Z,17.41
2023-05-06T07:22:55.322Z,17.47
2023-05-06T07:23:55.360Z,18.13
2023-05-06T07:24:55.312Z,18.73
2023-05-06T07:25:55.373Z,18.98
2023-05-06T07:26:55.300Z,18.29
2023-05-06T07:27:55.310Z,18.13
2023-05-06T07:28:55.282Z,17.33
2023-05-06T07:29:55.259Z,17.33
2023-05-06T07:30:55.315Z,16.96
2023-05-06T07:31:55.232Z,16.67
2023-05-06T07:32:55.263Z,16.59
2023-05-06T07:33:55.250Z,16.45
2023-05-06T07:34:55.231Z,16.38
2023-05-06T07:35:55.205Z,16.35
2023-05-06T07:36:55.218Z,16.34
2023-05-06T07:37:55.189Z,16.33
2023-05-06T07:38:55.204Z,16.35
2023-05-06T07:39:55.170Z,16.38
2023-05-06T07:40:55.175Z,16.86
2023-05-06T07:41:55.140Z,16.73
2023-05-06T07:42:55.161Z,16.74
2023-05-06T07:43:55.160Z,16.67
2023-05-06T07:44:55.108Z,16.50
2023-05-06T07:45:55.206Z,16.18
2023-05-06T07:46:55.160Z,15.94
2023-05-06T07:47:55.241Z,15.89
2023-05-06T07:48:55.083Z,15.82
2023-05-06T07:49:55.089Z,15.85
2023-05-06T07:50:55.057Z,15.92
2023-05-06T07:51:55.052Z,16.06
2023-05-06T07:52:55.071Z,16.92
2023-05-06T07:53:55.045Z,18.18
2023-05-06T07:54:55.018Z,19.01
2023-05-06T07:55:54.999Z,19.51
2023-05-06T07:56:55.008Z,19.28
2023-05-06T07:57:55.019Z,19.17
2023-05-06T07:58:54.982Z,19.75
2023-05-06T07:59:54.958Z,20.74
2023-05-06T08:00:54.937Z,21.32
2023-05-06T08:01:54.976Z,20.72
2023-05-06T08:02:54.967Z,21.36
2023-05-06T08:03:55.048Z,22.23
2023-05-06T08:04:55.072Z,22.14
2023-05-06T08:05:54.895Z,22.14
2023-05-06T08:06:54.894Z,22.37
2023-05-06T08:07:54.914Z,22.14
2023-05-06T08:08:54.888Z,21.71
2023-05-06T08:09:54.879Z,21.59
2023-05-06T08:10:54.836Z,21.88
2023-05-06T08:11:54.957Z,22.28
2023-05-06T08:12:54.922Z,22.75
2023-05-06T08:13:54.829Z,22.46
2023-05-06T08:14:54.807Z,21.74
2023-05-06T08:15:54.842Z,20.58
2023-05-06T08:16:54.789Z,19.94
2023-05-06T08:17:55.254Z,19.42
2023-05-06T08:18:54.806Z,19.21
2023-05-06T08:19:54.764Z,19.42
2023-05-06T08:20:54.755Z,20.62
2023-05-06T08:21:54.760Z,21.45
2023-05-06T08:22:54.717Z,21.94
2023-05-06T08:23:54.724Z,22.41
2023-05-06T08:24:54.731Z,22.41
2023-05-06T08:25:54.730Z,21.57
2023-05-06T08:26:54.696Z,20.90
2023-05-06T08:27:54.681Z,21.51
2023-05-06T08:28:54.673Z,22.62
2023-05-06T08:29:54.683Z,23.07
2023-05-06T08:30:54.673Z,23.35
2023-05-06T08:31:54.679Z,23.72
2023-05-06T08:32:54.667Z,23.01
2023-05-06T08:33:55.037Z,21.95
2023-05-06T08:34:54.622Z,21.60
2023-05-06T08:35:54.611Z,21.30
2023-05-06T08:36:54.579Z,21.14
2023-05-06T08:37:54.572Z,21.50
2023-05-06T08:38:54.592Z,22.53
2023-05-06T08:39:54.549Z,23.29
2023-05-06T08:40:54.592Z,23.85
2023-05-06T08:41:54.563Z,23.94
2023-05-06T08:42:54.532Z,24.34
2023-05-06T08:43:54.564Z,24.91
2023-05-06T08:44:54.491Z,25.00
2023-05-06T08:45:54.528Z,25.15
2023-05-06T08:46:54.477Z,25.53
2023-05-06T08:47:54.531Z,26.36
2023-05-06T08:48:54.490Z,26.39
2023-05-06T08:49:54.450Z,26.04
2023-05-06T08:50:54.446Z,26.35
2023-05-06T08:51:54.442Z,26.57
2023-05-06T08:52:54.447Z,25.72
2023-05-06T08:53:54.637Z,24.32
2023-05-06T08:54:54.395Z,25.15
2023-05-06T08:55:54.398Z,25.53
2023-05-06T08:56:54.415Z,25.89
2023-05-06T08:57:54.408Z,25.61
2023-05-06T08:58:54.380Z,25.43
2023-05-06T08:59:54.353Z,25.54
2023-05-06T09:00:54.382Z,25.34
2023-05-06T09:01:54.476Z,25.53
2023-05-06T09:02:54.441Z,25.80
2023-05-06T09:03:54.358Z,25.64
2023-05-06T09:04:54.329Z,26.24
2023-05-06T09:05:54.334Z,26.55
2023-05-06T09:06:54.365Z,26.02
2023-05-06T09:07:54.310Z,26.58
2023-05-06T09:08:54.309Z,27.21
2023-05-06T09:09:54.313Z,28.10
2023-05-06T09:10:54.276Z,28.38
2023-05-06T09:11:54.250Z,28.58
2023-05-06T09:12:54.269Z,28.70
2023-05-06T09:13:54.278Z,29.07
2023-05-06T09:14:54.260Z,29.49
2023-05-06T09:15:54.218Z,29.99
2023-05-06T09:16:54.280Z,30.40
2023-05-06T09:17:54.254Z,29.97
2023-05-06T09:18:54.201Z,29.22
2023-05-06T09:19:54.181Z,28.11
2023-05-06T09:20:54.208Z,27.06
2023-05-06T09:21:54.231Z,25.82
2023-05-06T09:22:54.159Z,25.02
2023-05-06T09:23:54.171Z,24.59
2023-05-06T09:24:54.180Z,24.16
2023-05-06T09:25:54.150Z,23.76
2023-05-06T09:26:54.113Z,23.26
2023-05-06T09:27:54.125Z,22.75
2023-05-06T09:28:54.120Z,22.44
2023-05-06T09:29:54.119Z,22.31
2023-05-06T09:30:54.116Z,22.22
2023-05-06T09:31:55.592Z,21.98
2023-05-06T09:32:54.079Z,21.71
2023-05-06T09:33:54.100Z,21.46
2023-05-06T09:34:54.601Z,21.08
2023-05-06T09:37:04.186Z,21.04
2023-05-06T09:38:07.085Z,21.05
2023-05-06T09:39:05.194Z,20.83
2023-05-06T09:40:05.169Z,20.64
2023-05-06T09:41:05.161Z,20.51
2023-05-06T09:42:05.101Z,20.47
2023-05-06T09:43:05.139Z,20.28
2023-05-06T09:44:05.104Z,20.24
2023-05-06T09:45:05.132Z,20.08
2023-05-06T09:46:05.176Z,20.02
2023-05-06T09:47:05.086Z,20.10
2023-05-06T09:48:05.086Z,22.06
2023-05-06T09:49:05.069Z,23.70
2023-05-06T09:50:05.082Z,24.80
2023-05-06T09:51:05.079Z,26.15
2023-05-06T09:52:05.004Z,27.39
2023-05-06T09:53:05.022Z,28.35
2023-05-06T09:54:05.029Z,28.84
2023-05-06T09:55:05.009Z,29.41
2023-05-06T09:56:05.000Z,29.26
2023-05-06T09:57:04.976Z,29.37
2023-05-06T09:58:04.983Z,29.89
2023-05-06T09:59:05.009Z,30.00
2023-05-06T10:00:04.926Z,29.63
2023-05-06T10:01:04.921Z,30.05
2023-05-06T10:02:04.985Z,29.78
2023-05-06T10:03:05.052Z,29.97
2023-05-06T10:04:05.215Z,29.81
2023-05-06T10:05:04.961Z,30.43
2023-05-06T10:06:04.862Z,30.50
2023-05-06T10:07:04.862Z,30.30
2023-05-06T10:08:08.320Z,30.07
2023-05-06T10:09:04.852Z,28.65
2023-05-06T10:10:04.845Z,26.84
2023-05-06T10:11:04.861Z,26.83
2023-05-06T10:12:04.850Z,26.74
2023-05-06T10:13:04.911Z,27.35
2023-05-06T10:14:04.811Z,28.03
2023-05-06T10:15:04.795Z,28.59
2023-05-06T10:16:04.827Z,29.01
2023-05-06T10:17:04.815Z,29.07
2023-05-06T10:18:04.866Z,28.60
2023-05-06T10:19:04.821Z,28.66
2023-05-06T10:20:04.772Z,28.16
2023-05-06T10:21:04.744Z,28.70
2023-05-06T10:22:05.740Z,29.86
2023-05-06T10:23:04.712Z,30.36
2023-05-06T10:24:04.723Z,30.47
2023-05-06T10:25:04.750Z,29.75
2023-05-06T10:26:04.788Z,29.11
2023-05-06T10:27:04.727Z,28.01
2023-05-06T10:28:06.154Z,27.35
2023-05-06T10:29:04.732Z,26.50
2023-05-06T10:30:04.705Z,26.08
2023-05-06T10:31:04.751Z,25.65
2023-05-06T10:32:04.744Z,25.47
2023-05-06T10:33:04.690Z,25.19
2023-05-06T10:34:04.627Z,24.83
2023-05-06T10:35:04.598Z,24.00
2023-05-06T10:36:04.667Z,23.23
2023-05-06T10:37:04.596Z,23.67
2023-05-06T10:38:05.234Z,25.16
2023-05-06T10:39:06.060Z,24.04
2023-05-06T10:40:06.325Z,23.23
2023-05-06T10:41:07.065Z,22.94
2023-05-06T10:42:06.931Z,24.80
2023-05-06T10:43:04.512Z,25.69
2023-05-06T10:44:04.529Z,25.57
2023-05-06T10:45:04.554Z,24.73
2023-05-06T10:46:04.557Z,24.08
2023-05-06T10:47:04.549Z,23.20
2023-05-06T10:48:04.496Z,22.46
2023-05-06T10:49:04.490Z,22.04
2023-05-06T10:50:04.493Z,21.56
2023-05-06T10:51:04.450Z,20.42
2023-05-06T10:52:04.434Z,19.29
2023-05-06T10:53:04.425Z,18.72
2023-05-06T10:54:04.472Z,18.47
2023-05-06T10:55:04.438Z,18.55
2023-05-06T10:56:04.411Z,20.13
2023-05-06T10:57:04.419Z,21.64
2023-05-06T10:58:04.396Z,22.53
2023-05-06T10:59:04.388Z,23.38
2023-05-06T11:00:04.390Z,24.04
2023-05-06T11:01:04.429Z,24.41
2023-05-06T11:02:04.401Z,24.50
2023-05-06T11:03:04.376Z,25.47
2023-05-06T11:04:04.339Z,25.75
2023-05-06T11:05:04.306Z,26.29
2023-05-06T11:06:04.338Z,26.21
2023-05-06T11:07:04.285Z,25.01
2023-05-06T11:08:04.287Z,24.17
2023-05-06T11:09:04.314Z,24.29
2023-05-06T11:10:04.263Z,25.64
2023-05-06T11:11:04.262Z,26.27
2023-05-06T11:12:04.230Z,26.28
2023-05-06T11:13:04.254Z,26.47
2023-05-06T11:14:04.287Z,26.92
2023-05-06T11:15:04.233Z,27.09
2023-05-06T11:16:04.301Z,27.33
2023-05-06T11:17:04.346Z,26.87
2023-05-06T11:18:04.283Z,25.57
2023-05-06T11:19:04.195Z,24.27
2023-05-06T11:20:04.167Z,23.94
2023-05-06T11:21:04.157Z,23.40
2023-05-06T11:22:04.157Z,23.01
2023-05-06T11:23:04.173Z,22.74
2023-05-06T11:24:04.144Z,22.49
2023-05-06T11:25:04.104Z,22.04
2023-05-06T11:26:04.132Z,21.75
2023-05-06T11:27:04.175Z,21.72
2023-05-06T11:28:04.102Z,22.12
2023-05-06T11:29:04.125Z,22.65
2023-05-06T11:30:04.068Z,22.32
2023-05-06T11:31:04.092Z,22.07
2023-05-06T11:32:04.069Z,21.81
2023-05-06T11:33:05.502Z,21.83
2023-05-06T11:34:04.091Z,21.74
2023-05-06T11:35:03.985Z,21.60
2023-05-06T11:36:04.044Z,21.39
2023-05-06T11:37:04.044Z,21.83
2023-05-06T11:38:04.037Z,21.95
2023-05-06T11:39:05.261Z,21.66
2023-05-06T11:40:03.967Z,21.44
2023-05-06T11:41:03.965Z,21.17
2023-05-06T11:42:03.962Z,21.20
2023-05-06T11:43:03.940Z,21.23
2023-05-06T11:44:03.917Z,21.06
2023-05-06T11:45:03.894Z,21.02
2023-05-06T11:46:03.984Z,20.77
2023-05-06T11:47:03.888Z,20.69
2023-05-06T11:48:03.908Z,20.72
2023-05-06T11:49:03.894Z,21.27
2023-05-06T11:50:03.851Z,22.31
2023-05-06T11:51:03.890Z,22.89
2023-05-06T11:52:03.865Z,22.64
2023-05-06T11:53:03.869Z,22.22
2023-05-06T11:54:03.845Z,22.32
2023-05-06T11:55:03.853Z,22.86
2023-05-06T11:56:03.844Z,22.49
2023-05-06T11:57:03.770Z,22.68
2023-05-06T11:58:03.765Z,22.82
2023-05-06T11:59:03.788Z,23.08
2023-05-06T12:00:03.775Z,22.77
2023-05-06T12:01:03.721Z,23.11
2023-05-06T12:02:03.721Z,22.92
2023-05-06T12:03:03.745Z,22.94
2023-05-06T12:04:03.839Z,23.04
2023-05-06T12:05:03.758Z,23.17
2023-05-06T12:06:03.704Z,23.20
2023-05-06T12:07:03.709Z,23.04
2023-05-06T12:08:06.390Z,22.83
2023-05-06T12:09:03.711Z,22.37
2023-05-06T12:10:03.673Z,21.66
2023-05-06T12:11:03.619Z,21.23
2023-05-06T12:12:03.624Z,21.01
2023-05-06T12:13:03.632Z,20.84
2023-05-06T12:14:03.626Z,21.02
2023-05-06T12:15:03.605Z,21.23
2023-05-06T12:16:03.577Z,21.41
2023-05-06T12:17:03.585Z,21.41
2023-05-06T12:18:03.616Z,21.02
2023-05-06T12:19:03.604Z,20.95
2023-05-06T12:20:03.569Z,20.99
2023-05-06T12:21:03.704Z,21.09
2023-05-06T12:22:03.636Z,21.11
2023-05-06T12:23:03.603Z,21.16
2023-05-06T12:24:03.618Z,21.05
2023-05-06T12:25:03.496Z,20.84
2023-05-06T12:26:03.464Z,20.68
2023-05-06T12:27:03.623Z,20.51
2023-05-06T12:28:03.804Z,20.46
2023-05-06T12:29:03.473Z,20.38
2023-05-06T12:30:03.440Z,20.24
2023-05-06T12:31:03.427Z,20.13
2023-05-06T12:32:03.517Z,20.09
2023-05-06T12:33:03.518Z,19.94
2023-05-06T12:34:03.457Z,19.79
2023-05-06T12:35:03.388Z,19.75
2023-05-06T12:36:03.380Z,19.63
2023-05-06T12:37:03.387Z,19.51
2023-05-06T12:38:03.396Z,19.46
2023-05-06T12:39:03.344Z,19.43
2023-05-06T12:40:03.357Z,19.53
2023-05-06T12:41:03.312Z,19.55
2023-05-06T12:42:03.490Z,19.61
2023-05-06T12:43:03.353Z,19.63
2023-05-06T12:44:03.298Z,19.69
2023-05-06T12:45:03.280Z,19.73
2023-05-06T12:46:03.368Z,19.83
2023-05-06T12:47:03.304Z,19.94
2023-05-06T12:48:03.276Z,20.02
2023-05-06T12:49:03.388Z,20.06
2023-05-06T12:50:03.380Z,20.20
2023-05-06T12:51:03.242Z,20.47
2023-05-06T12:52:03.280Z,20.69
2023-05-06T12:53:03.219Z,20.77
2023-05-06T12:54:03.184Z,20.59
2023-05-06T12:55:03.207Z,20.39
2023-05-06T12:56:03.189Z,20.27
2023-05-06T12:57:03.150Z,20.23
2023-05-06T12:58:03.137Z,20.09